Time;durP1;ratioP1;P1;durP2;ratioP2;P2;SDS_P1;SDS_P2;PMS_P1;PMS_P2;Temp;Humidity;BMP_temperature;BMP_pressure;BME280_temperature;BME280_humidity;BME280_pressure;Samples;Min_cycle;Max_cycle;Signal;HPM_P1;HPM_P2
2021/12/05 00:24:08;;;;;;;63.87;28.95;;;;;;;-3.55;100.00;99691.83;1723569;82;21979;-81
2021/12/05 00:26:30;;;;;;;66.95;28.32;;;;;;;-3.53;100.00;99686.27;1753416;80;21008;-82
2021/12/05 00:31:46;;;;;;;65.87;30.05;;;;;;;-3.51;100.00;99697.45;1718702;83;21050;-83
2021/12/05 00:49:57;;;;;;;68.92;32.75;;;;;;;-3.48;100.00;99693.20;1683525;85;22342;-83
2021/12/05 01:12:40;;;;;;;61.92;28.60;;;;;;;-3.75;100.00;99693.73;1695747;84;21096;-82
2021/12/05 01:15:07;;;;;;;83.72;33.98;;;;;;;-3.75;100.00;99686.00;1710549;83;21160;-82
2021/12/05 01:17:55;;;;;;;149.82;47.95;;;;;;;-3.74;100.00;99686.44;1708415;83;21096;-81
2021/12/05 01:20:14;;;;;;;110.97;39.88;;;;;;;-3.72;100.00;99679.60;1692365;84;21136;-82
2021/12/05 01:22:49;;;;;;;75.72;29.75;;;;;;;-3.69;100.00;99684.78;1711356;83;21092;-82
2021/12/05 01:25:22;;;;;;;59.88;27.67;;;;;;;-3.69;100.00;99692.92;1688869;84;21112;-82
2021/12/05 01:27:55;;;;;;;53.70;26.35;;;;;;;-3.72;100.00;99697.62;1687395;84;22413;-80
2021/12/05 01:30:32;;;;;;;55.20;26.68;;;;;;;-3.69;100.00;99698.94;1687044;84;21103;-82
2021/12/05 01:35:39;;;;;;;55.98;27.00;;;;;;;-3.64;100.00;99711.44;1689555;84;21672;-82
2021/12/05 01:38:10;;;;;;;72.72;32.70;;;;;;;-3.73;100.00;99713.88;1731974;81;21399;-81
2021/12/05 01:40:44;;;;;;;71.55;30.45;;;;;;;-3.79;100.00;99709.95;1688669;84;21261;-81
2021/12/05 01:58:55;;;;;;;57.25;26.10;;;;;;;-4.29;100.00;99722.91;1647329;86;21703;-84
2021/12/05 02:39:52;;;;;;;55.90;23.20;;;;;;;-4.09;100.00;99711.23;1721933;82;21661;-78
2021/12/05 02:42:32;;;;;;;64.32;29.82;;;;;;;-4.18;100.00;99714.95;1720967;83;21047;-78
2021/12/05 02:45:01;;;;;;;65.80;30.67;;;;;;;-4.21;100.00;99713.59;1722093;82;21531;-78
2021/12/05 02:47:29;;;;;;;60.03;28.53;;;;;;;-4.24;100.00;99713.56;1721877;83;21135;-81
2021/12/05 02:49:58;;;;;;;56.88;27.85;;;;;;;-4.28;100.00;99701.48;1721824;83;21041;-78
2021/12/05 02:52:33;;;;;;;59.07;26.43;;;;;;;-4.32;100.00;99705.73;1721903;83;21088;-79
2021/12/05 02:55:12;;;;;;;58.47;27.07;;;;;;;-4.30;100.00;99707.02;1721752;83;21092;-78
2021/12/05 03:00:22;;;;;;;58.27;26.80;;;;;;;-4.23;100.00;99705.88;1672908;82;21198;-77
2021/12/05 03:02:51;;;;;;;63.60;30.77;;;;;;;-4.17;100.00;99702.52;1739845;82;21066;-77
2021/12/05 03:05:20;;;;;;;55.43;25.88;;;;;;;-4.15;100.00;99705.13;1740200;82;21038;-82
2021/12/05 03:07:47;;;;;;;61.87;27.73;;;;;;;-4.14;100.00;99698.73;1740177;82;21529;-84
2021/12/05 03:10:19;;;;;;;56.25;26.82;;;;;;;-4.11;100.00;99691.05;1710935;83;21021;-84
2021/12/05 03:12:47;;;;;;;58.97;24.17;;;;;;;-4.10;100.00;99678.63;1710877;83;21157;-83
2021/12/05 03:15:16;;;;;;;65.10;29.57;;;;;;;-4.10;100.00;99673.48;1715090;83;21651;-83
2021/12/05 03:17:43;;;;;;;60.23;29.13;;;;;;;-4.09;100.00;99670.09;1722465;83;21024;-84
2021/12/05 03:20:14;;;;;;;63.30;28.67;;;;;;;-4.09;100.00;99664.09;1722616;82;21080;-84
2021/12/05 03:22:42;;;;;;;56.10;26.20;;;;;;;-4.11;100.00;99651.19;1722527;83;21331;-82
2021/12/05 03:25:10;;;;;;;55.70;27.73;;;;;;;-4.12;100.00;99653.30;1696230;83;21775;-84
2021/12/05 03:27:39;;;;;;;55.97;26.23;;;;;;;-4.11;100.00;99648.63;1722454;83;21573;-81
2021/12/05 03:30:07;;;;;;;40.10;17.23;;;;;;;-4.09;100.00;99652.08;1722728;83;21012;-82
2021/12/05 03:32:35;;;;;;;45.30;21.10;;;;;;;-4.10;100.00;99659.34;1722662;83;21039;-83
2021/12/05 03:35:04;;;;;;;55.27;27.97;;;;;;;-4.09;100.00;99662.38;1724187;83;21049;-82
2021/12/05 03:37:31;;;;;;;56.33;22.63;;;;;;;-4.10;100.00;99666.20;1750614;81;21135;-83
2021/12/05 03:39:59;;;;;;;56.33;25.73;;;;;;;-4.15;100.00;99667.41;1759118;81;21069;-83
2021/12/05 03:42:27;;;;;;;48.50;21.03;;;;;;;-4.17;100.00;99669.09;1758032;81;21060;-84
2021/12/05 03:44:55;;;;;;;61.90;27.30;;;;;;;-4.18;100.00;99660.09;1756319;81;21056;-82
2021/12/05 03:47:23;;;;;;;63.77;29.03;;;;;;;-4.19;100.00;99659.20;1755012;81;21044;-79
2021/12/05 03:49:50;;;;;;;59.43;27.93;;;;;;;-4.20;100.00;99661.34;1754581;81;21109;-80
2021/12/05 03:52:18;;;;;;;61.07;29.87;;;;;;;-4.21;100.00;99657.03;1754676;81;21052;-80
2021/12/05 03:54:44;;;;;;;54.33;25.70;;;;;;;-4.18;100.00;99654.95;1740171;81;21567;-80
2021/12/05 03:57:13;;;;;;;61.73;29.13;;;;;;;-4.18;100.00;99658.81;1722955;82;21070;-79
2021/12/05 03:59:41;;;;;;;61.77;27.57;;;;;;;-4.21;100.00;99653.17;1727891;82;21112;-83
2021/12/05 04:02:10;;;;;;;59.10;25.47;;;;;;;-4.22;100.00;99652.74;1727102;83;21111;-84
2021/12/05 04:04:42;;;;;;;55.90;21.85;;;;;;;-4.24;100.00;99660.42;1733416;82;21040;-83
2021/12/05 04:07:13;;;;;;;46.43;21.43;;;;;;;-4.28;100.00;99659.95;1727633;83;21139;-81
2021/12/05 04:09:40;;;;;;;59.10;25.20;;;;;;;-4.26;100.00;99659.95;1726996;83;21607;-80
2021/12/05 04:12:07;;;;;;;57.13;23.43;;;;;;;-4.29;100.00;99653.49;1727270;82;21103;-81
2021/12/05 04:14:41;;;;;;;51.27;23.23;;;;;;;-4.30;100.00;99644.92;1727106;82;21842;-81
2021/12/05 04:17:11;;;;;;;62.07;27.30;;;;;;;-4.29;100.00;99649.21;1726976;83;21021;-81
2021/12/05 04:19:39;;;;;;;62.50;29.00;;;;;;;-4.30;100.00;99642.75;1726943;82;21052;-81
2021/12/05 04:22:07;;;;;;;58.67;28.40;;;;;;;-4.33;100.00;99633.72;1727714;83;20977;-81
2021/12/05 04:24:35;;;;;;;63.20;28.07;;;;;;;-4.30;100.00;99649.17;1727303;83;21146;-81
2021/12/05 04:27:03;;;;;;;47.70;22.02;;;;;;;-4.28;100.00;99650.06;1727351;83;21162;-79
2021/12/05 04:29:31;;;;;;;60.93;26.33;;;;;;;-4.32;100.00;99657.31;1696294;84;21068;-80
2021/12/05 04:31:59;;;;;;;55.08;23.77;;;;;;;-4.33;100.00;99661.99;1733178;82;21553;-78
2021/12/05 04:34:27;;;;;;;64.60;29.42;;;;;;;-4.34;100.00;99663.70;1737092;82;21130;-83
2021/12/05 04:36:56;;;;;;;71.37;29.07;;;;;;;-4.33;100.00;99664.56;1734070;82;21094;-82
2021/12/05 04:39:26;;;;;;;55.73;26.50;;;;;;;-4.33;100.00;99665.84;1728060;83;21216;-83
2021/12/05 04:41:53;;;;;;;66.60;30.77;;;;;;;-4.31;100.00;99666.74;1727955;82;21070;-83
2021/12/05 04:44:21;;;;;;;54.73;23.50;;;;;;;-4.34;100.00;99665.42;1712524;82;21067;-81
2021/12/05 04:46:50;;;;;;;64.63;28.90;;;;;;;-4.32;100.00;99680.45;1696124;83;21100;-73
2021/12/05 04:49:18;;;;;;;66.53;31.30;;;;;;;-4.33;100.00;99677.42;1674414;84;21076;-73
2021/12/05 04:51:45;;;;;;;65.90;29.02;;;;;;;-4.33;100.00;99683.84;1666115;84;21838;-75
2021/12/05 04:54:17;;;;;;;64.87;30.73;;;;;;;-4.37;100.00;99685.92;1718440;83;21096;-73
2021/12/05 04:56:46;;;;;;;71.10;31.33;;;;;;;-4.39;100.00;99691.05;1717038;83;21070;-75
2021/12/05 04:59:17;;;;;;;66.00;29.35;;;;;;;-4.43;100.00;99696.55;1722976;83;22121;-74
2021/12/05 05:01:47;;;;;;;76.97;35.43;;;;;;;-4.45;100.00;99700.80;1710600;83;21070;-74
2021/12/05 05:04:42;;;;;;;75.30;33.58;;;;;;;-4.48;100.00;99694.33;1696319;84;21149;-74
2021/12/05 05:06:47;;;;;;;56.63;24.30;;;;;;;-4.49;100.00;99695.16;1688170;84;21063;-75
2021/12/05 05:09:14;;;;;;;65.37;30.87;;;;;;;-4.53;100.00;99703.68;1695640;83;21841;-73
2021/12/05 05:11:41;;;;;;;66.33;30.17;;;;;;;-4.55;100.00;99703.21;1692257;83;20987;-76
2021/12/05 05:14:09;;;;;;;67.47;30.35;;;;;;;-4.58;100.00;99697.57;1694684;83;21503;-74
2021/12/05 05:16:36;;;;;;;64.60;27.97;;;;;;;-4.60;100.00;99699.28;1693132;84;21391;-72
2021/12/05 05:19:03;;;;;;;59.53;26.87;;;;;;;-4.62;100.00;99706.48;1689564;84;21083;-74
2021/12/05 05:26:50;;;;;;;65.13;30.53;;;;;;;-4.65;100.00;99713.33;1695721;83;21632;-75
2021/12/05 05:40:16;;;;;;;66.70;28.50;;;;;;;-4.68;100.00;99716.25;1756238;80;21650;-75
2021/12/05 05:43:12;;;;;;;65.10;30.37;;;;;;;-4.69;100.00;99717.11;1757617;80;21524;-75
2021/12/05 05:45:44;;;;;;;91.72;39.67;;;;;;;-4.71;100.00;99709.78;1755212;80;21559;-75
2021/12/05 05:50:34;;;;;;;78.75;34.33;;;;;;;-4.72;100.00;99717.03;1673923;80;21579;-76
2021/12/05 05:53:00;;;;;;;88.77;38.30;;;;;;;-4.73;100.00;99718.73;1760600;81;21028;-73
2021/12/05 05:55:27;;;;;;;75.17;33.80;;;;;;;-4.74;100.00;99707.14;1760642;81;21765;-74
2021/12/05 06:00:33;;;;;;;67.03;29.23;;;;;;;-4.78;100.00;99696.39;1754315;80;21023;-75
2021/12/05 06:06:04;;;;;;;76.80;34.23;;;;;;;-4.81;100.00;99707.45;1763398;81;21040;-74
2021/12/05 06:08:34;;;;;;;102.63;38.60;;;;;;;-4.80;100.00;99708.34;1766089;80;21135;-75
2021/12/05 06:11:04;;;;;;;120.93;40.87;;;;;;;-4.76;100.00;99708.81;1760067;80;21088;-75
2021/12/05 06:13:31;;;;;;;101.53;39.40;;;;;;;-4.78;100.00;99698.95;1766395;80;21067;-74
2021/12/05 06:15:59;;;;;;;106.83;39.43;;;;;;;-4.74;100.00;99703.28;1754513;80;21547;-75
2021/12/05 06:18:26;;;;;;;77.37;34.17;;;;;;;-4.73;100.00;99704.61;1752884;80;21055;-75
2021/12/05 06:20:53;;;;;;;91.93;38.97;;;;;;;-4.68;100.00;99696.98;1750805;81;21310;-74
2021/12/05 06:23:20;;;;;;;86.23;39.23;;;;;;;-4.65;100.00;99698.31;1752090;81;21005;-74
2021/12/05 06:25:50;;;;;;;120.10;40.47;;;;;;;-4.58;100.00;99703.14;1753098;80;21063;-73
2021/12/05 06:28:22;;;;;;;76.03;35.67;;;;;;;-4.53;100.00;99714.35;1760896;81;21088;-75
2021/12/05 06:31:10;;;;;;;85.67;39.60;;;;;;;-4.48;100.00;99725.60;1736608;82;21595;-74
2021/12/05 06:41:50;;;;;;;141.90;52.30;;;;;;;-4.30;100.00;99743.02;1702447;82;21048;-75
2021/12/05 06:46:40;;;;;;;84.35;36.60;;;;;;;-4.17;100.00;99742.81;1726501;82;21174;-75
2021/12/05 06:49:06;;;;;;;84.57;35.70;;;;;;;-4.05;100.00;99758.03;1739549;82;21560;-74
2021/12/05 06:51:33;;;;;;;79.17;34.50;;;;;;;-3.96;100.00;99756.42;1739123;82;21014;-75
2021/12/05 06:54:01;;;;;;;122.82;47.53;;;;;;;-4.05;100.00;99758.42;1739930;82;21560;-75
2021/12/05 06:56:28;;;;;;;93.17;39.35;;;;;;;-4.18;100.00;99759.95;1728350;82;21129;-76
2021/12/05 06:58:55;;;;;;;81.85;35.40;;;;;;;-4.30;100.00;99767.44;1739586;82;21833;-75
2021/12/05 07:01:22;;;;;;;78.17;36.20;;;;;;;-4.41;100.00;99772.42;1739795;82;21533;-74
2021/12/05 07:06:34;;;;;;;88.57;36.57;;;;;;;-4.46;100.00;99776.19;1795117;79;22672;-75
2021/12/05 07:09:07;;;;;;;82.83;35.90;;;;;;;-4.52;100.00;99769.65;1755804;81;21092;-74
2021/12/05 07:11:39;;;;;;;76.75;35.43;;;;;;;-4.51;100.00;99771.40;1740202;81;21025;-74
2021/12/05 07:19:45;;;;;;;81.00;35.35;;;;;;;-4.47;100.00;99773.16;1750990;81;21038;-74
2021/12/05 07:22:14;;;;;;;88.67;37.57;;;;;;;-4.43;100.00;99780.09;1747411;81;20965;-75
2021/12/05 07:24:47;;;;;;;76.63;34.47;;;;;;;-4.41;100.00;99783.12;1741186;81;21158;-75
2021/12/05 07:40:55;;;;;;;103.97;40.20;;;;;;;-4.10;100.00;99786.64;1723804;83;21069;-75
2021/12/05 07:43:21;;;;;;;81.50;34.97;;;;;;;-3.98;100.00;99774.83;1722859;82;21017;-73
2021/12/05 07:45:54;;;;;;;97.73;40.73;;;;;;;-3.85;100.00;99774.19;1721369;82;21069;-78
2021/12/05 07:48:24;;;;;;;106.90;42.38;;;;;;;-3.77;100.00;99781.61;1724603;82;21674;-79
2021/12/05 07:53:55;;;;;;;93.22;39.30;;;;;;;-3.52;100.00;99776.41;1710573;81;21332;-80
2021/12/05 07:56:33;;;;;;;148.95;56.23;;;;;;;-3.37;100.00;99782.17;1689232;84;21065;-79
2021/12/05 07:59:38;;;;;;;93.47;38.60;;;;;;;-3.26;100.00;99784.47;1680960;83;21140;-79
2021/12/05 08:15:16;;;;;;;104.05;43.75;;;;;;;-2.76;100.00;99799.70;1676076;84;21124;-79
2021/12/05 08:17:41;;;;;;;105.55;42.67;;;;;;;-2.59;100.00;99811.91;1677702;84;21550;-81
2021/12/05 08:20:11;;;;;;;105.20;45.35;;;;;;;-2.42;100.00;99806.91;1675275;84;21076;-80
2021/12/05 08:22:39;;;;;;;87.27;40.40;;;;;;;-2.03;100.00;99803.84;1676992;84;21080;-80
2021/12/05 08:25:11;;;;;;;95.67;41.58;;;;;;;-1.45;100.00;99802.55;1678749;84;21038;-81
2021/12/05 08:27:42;;;;;;;86.22;38.08;;;;;;;-0.89;100.00;99805.88;1685090;84;21081;-81
2021/12/05 08:30:14;;;;;;;77.58;36.65;;;;;;;-0.44;100.00;99805.58;1682051;84;21087;-82
2021/12/05 08:32:57;;;;;;;76.35;34.67;;;;;;;0.01;100.00;99797.46;1682853;84;21058;-81
2021/12/05 09:21:55;;;;;;;61.40;30.85;;;;;;;3.55;86.92;99734.81;1687769;84;21057;-82
2021/12/05 09:27:01;;;;;;;59.70;29.40;;;;;;;4.14;81.22;99743.85;1681677;84;21133;-79
2021/12/05 09:29:52;;;;;;;55.80;31.52;;;;;;;3.93;80.64;99746.38;1679831;83;21057;-82
2021/12/05 10:15:39;;;;;;;65.32;31.50;;;;;;;3.14;85.38;99738.39;1640390;85;21058;-79
2021/12/05 10:27:08;;;;;;;63.17;31.20;;;;;;;2.83;81.94;99750.05;1671206;85;21164;-79
2021/12/05 10:38:34;;;;;;;61.08;28.65;;;;;;;2.45;83.86;99757.84;1673952;85;21545;-80
2021/12/05 10:43:43;;;;;;;59.58;29.80;;;;;;;1.91;87.29;99760.03;1664078;85;21073;-80
2021/12/05 10:46:12;;;;;;;62.53;30.27;;;;;;;1.75;87.33;99762.77;1671404;85;21112;-85
2021/12/05 10:48:43;;;;;;;62.10;31.53;;;;;;;1.52;88.26;99764.63;1622684;85;21035;-82
2021/12/05 10:51:16;;;;;;;61.93;29.97;;;;;;;1.51;90.41;99753.39;1715104;81;22241;-81
2021/12/05 10:53:55;;;;;;;68.80;33.55;;;;;;;1.39;91.64;99769.90;1699820;82;21112;-80
2021/12/05 10:56:33;;;;;;;66.47;31.75;;;;;;;1.25;91.34;99744.47;1703516;83;21050;-80
2021/12/05 10:59:08;;;;;;;51.88;26.02;;;;;;;1.28;94.37;99748.34;1710730;82;21147;-77
2021/12/05 11:01:44;;;;;;;62.00;30.62;;;;;;;1.38;95.75;99759.11;1707003;83;21065;-81
2021/12/05 11:04:18;;;;;;;56.92;26.70;;;;;;;1.49;93.04;99759.47;1700691;82;21580;-79
2021/12/05 11:06:52;;;;;;;44.70;19.67;;;;;;;1.18;93.53;99772.61;1716128;82;21080;-80
2021/12/05 11:09:33;;;;;;;67.87;30.77;;;;;;;1.18;93.53;99772.61;1718436;83;21108;-83
2021/12/05 11:12:09;;;;;;;;;;;;;;;1.02;94.67;99773.96;1722388;82;21080;-80
2021/12/05 11:14:47;;;;;;;67.80;28.57;;;;;;;0.93;95.39;99777.03;1702728;83;20215;-80
2021/12/05 11:17:18;;;;;;;63.10;29.42;;;;;;;0.81;97.50;99772.31;1716042;83;21099;-80
2021/12/05 11:19:49;;;;;;;61.45;28.07;;;;;;;0.91;97.10;99765.36;1682100;84;21071;-82
2021/12/05 11:22:25;;;;;;;129.93;54.63;;;;;;;0.88;97.30;99761.49;1689676;84;21080;-79
2021/12/05 11:25:09;;;;;;;71.72;33.23;;;;;;;0.89;97.89;99752.83;1650335;85;21547;-78
2021/12/05 11:27:49;;;;;;;64.80;28.52;;;;;;;0.81;97.57;99753.31;1659663;85;21526;-79
2021/12/05 11:30:23;;;;;;;63.55;27.37;;;;;;;0.68;97.91;99755.51;1686694;84;21046;-79
2021/12/05 11:33:04;;;;;;;64.32;30.05;;;;;;;0.45;97.91;99766.78;1676653;85;21081;-78
2021/12/05 11:35:38;;;;;;;55.58;26.45;;;;;;;0.29;98.44;99776.30;1660382;85;22845;-80
2021/12/05 11:38:29;;;;;;;85.12;33.70;;;;;;;0.17;99.59;99765.96;1670058;85;21154;-80
2021/12/05 11:41:02;;;;;;;70.22;30.85;;;;;;;0.13;100.00;99767.67;1661343;85;21048;-79
2021/12/05 11:43:41;;;;;;;79.00;31.93;;;;;;;0.18;100.00;99751.73;1681169;83;21111;-80
2021/12/05 11:46:15;;;;;;;79.65;31.65;;;;;;;0.19;100.00;99743.52;1664174;85;21063;-81
2021/12/05 11:48:55;;;;;;;73.25;30.45;;;;;;;0.18;100.00;99746.55;1661439;85;21134;-80
2021/12/05 11:51:28;;;;;;;61.30;27.20;;;;;;;0.19;100.00;99741.78;1654157;85;21557;-80
2021/12/05 11:54:18;;;;;;;61.02;27.87;;;;;;;0.27;100.00;99748.67;1656607;85;21149;-80
2021/12/05 11:57:01;;;;;;;61.92;29.55;;;;;;;0.46;100.00;99757.27;1661992;85;21133;-78
2021/12/05 11:59:42;;;;;;;55.88;26.95;;;;;;;0.62;100.00;99762.44;1685962;83;21091;-78
2021/12/05 12:02:22;;;;;;;56.40;26.85;;;;;;;0.65;100.00;99746.02;1659893;86;21568;-77
2021/12/05 12:05:06;;;;;;;65.12;30.65;;;;;;;0.58;98.64;99750.79;1663089;85;21092;-75
2021/12/05 12:07:50;;;;;;;74.50;30.88;;;;;;;0.42;98.90;99743.48;1671986;83;21559;-78
2021/12/05 12:10:23;;;;;;;77.90;32.17;;;;;;;0.39;99.68;99751.23;1709711;83;21091;-76
2021/12/05 12:13:14;;;;;;;65.20;29.67;;;;;;;0.54;99.77;99757.70;1712986;83;21563;-74
2021/12/05 12:15:42;;;;;;;59.50;30.25;;;;;;;0.52;98.67;99752.95;1715519;83;21054;-75
2021/12/05 12:18:25;;;;;;;63.95;31.07;;;;;;;0.49;99.68;99749.08;1715832;83;21122;-75
2021/12/05 12:20:47;;;;;;;60.92;28.75;;;;;;;0.48;99.28;99742.16;1714796;83;21030;-74
2021/12/05 12:23:16;;;;;;;63.55;30.85;;;;;;;0.39;99.24;99738.28;1719023;81;21041;-75
2021/12/05 12:25:45;;;;;;;66.47;32.48;;;;;;;0.28;99.65;99740.06;1709012;83;21536;-76
2021/12/05 12:28:12;;;;;;;77.37;36.05;;;;;;;0.10;99.63;99751.30;1714599;83;21038;-77
2021/12/05 12:30:44;;;;;;;88.87;40.00;;;;;;;-0.11;100.00;99749.58;1713412;83;21136;-75
2021/12/05 12:33:15;;;;;;;82.42;37.28;;;;;;;-0.28;100.00;99749.11;1711735;83;26757;-75
2021/12/05 12:35:44;;;;;;;78.85;34.38;;;;;;;-0.38;100.00;99752.56;1717468;82;21065;-76
2021/12/05 12:38:19;;;;;;;67.03;31.75;;;;;;;-0.52;100.00;99747.80;1715223;83;21544;-74
2021/12/05 12:40:49;;;;;;;72.92;34.05;;;;;;;-0.64;100.00;99750.80;1711754;83;21049;-75
2021/12/05 12:43:41;;;;;;;;;;;;;;;-0.79;100.00;99752.05;1713069;83;21151;-76
2021/12/05 12:46:28;;;;;;;136.97;58.80;;;;;;;-0.90;100.00;99758.89;1712619;83;20190;-76
2021/12/05 12:49:18;;;;;;;77.30;33.58;;;;;;;-1.01;100.00;99780.84;1715095;82;21717;-75
2021/12/05 12:52:07;;;;;;;85.53;39.67;;;;;;;-1.12;100.00;99775.62;1709731;83;21084;-75
2021/12/05 12:54:53;;;;;;;78.50;37.35;;;;;;;-1.21;100.00;99774.28;1708904;83;21757;-84
2021/12/05 12:57:27;;;;;;;101.00;47.27;;;;;;;-1.26;100.00;99778.58;1709080;83;21808;-83
2021/12/05 13:00:11;;;;;;;84.58;39.08;;;;;;;-1.31;100.00;99775.97;1718032;83;22179;-83
2021/12/05 13:11:19;;;;;;;87.82;37.63;;;;;;;-1.53;100.00;99780.13;1663665;85;21079;-83
2021/12/05 13:13:54;;;;;;;87.82;39.35;;;;;;;-1.58;100.00;99771.50;1667162;85;21659;-83
2021/12/05 13:16:29;;;;;;;91.82;41.25;;;;;;;-1.62;100.00;99775.34;1639718;85;21486;-81
2021/12/05 13:18:59;;;;;;;92.15;39.27;;;;;;;-1.65;100.00;99777.48;1664328;85;21105;-81
2021/12/05 13:21:36;;;;;;;84.50;32.35;;;;;;;-1.69;100.00;99782.18;1663044;85;21125;-81
2021/12/05 13:24:02;;;;;;;97.37;42.30;;;;;;;-1.79;100.00;99781.69;1668401;85;21966;-81
2021/12/05 13:26:42;;;;;;;93.30;42.70;;;;;;;-1.82;100.00;99785.08;1626746;85;21141;-82
2021/12/05 13:29:20;;;;;;;100.95;46.35;;;;;;;-1.86;100.00;99789.81;1667118;85;26229;-82
2021/12/05 13:31:53;;;;;;;97.53;40.38;;;;;;;-1.88;100.00;99789.36;1664241;85;21680;-84
2021/12/05 13:34:26;;;;;;;93.60;40.75;;;;;;;-1.94;100.00;99787.14;1668418;85;21088;-84
2021/12/05 13:36:58;;;;;;;95.57;41.95;;;;;;;-1.96;100.00;99790.57;1653831;85;22190;-84
2021/12/05 13:39:56;;;;;;;95.80;42.13;;;;;;;-1.98;100.00;99790.98;1668794;85;21081;-85
2021/12/05 13:42:28;;;;;;;104.12;47.00;;;;;;;-2.05;100.00;99787.48;1649604;85;21051;-84
2021/12/05 13:45:28;;;;;;;104.85;47.17;;;;;;;-2.03;100.00;99799.11;1664864;85;21059;-80
2021/12/05 13:48:04;;;;;;;97.78;43.25;;;;;;;-2.05;100.00;99790.06;1666842;85;21936;-80
2021/12/05 13:50:55;;;;;;;92.40;40.75;;;;;;;-2.09;100.00;99788.33;1667832;85;21073;-79
2021/12/05 13:53:27;;;;;;;98.55;45.52;;;;;;;-2.13;100.00;99777.11;1668348;85;21042;-80
2021/12/05 13:56:03;;;;;;;89.92;39.83;;;;;;;-2.14;100.00;99784.82;1668896;85;21075;-80
2021/12/05 13:58:41;;;;;;;95.90;41.30;;;;;;;-2.15;100.00;99777.95;1664859;85;21556;-80
2021/12/05 14:01:29;;;;;;;85.47;40.55;;;;;;;-2.13;100.00;99783.98;1665053;85;21070;-80
2021/12/05 14:04:10;;;;;;;85.35;41.08;;;;;;;-2.14;100.00;99784.82;1669109;85;21167;-81
2021/12/05 14:06:58;;;;;;;76.90;36.68;;;;;;;-2.19;100.00;99791.66;1669153;85;21571;-80
2021/12/05 14:09:43;;;;;;;77.90;37.90;;;;;;;-2.21;100.00;99788.20;1659626;85;22341;-79
2021/12/05 14:12:29;;;;;;;89.97;42.55;;;;;;;-2.16;100.00;99794.30;1665627;85;21079;-80
2021/12/05 14:14:59;;;;;;;83.58;39.55;;;;;;;-2.14;100.00;99788.69;1663435;82;32248;-78
2021/12/05 14:17:27;;;;;;;;;;;;;;;-2.13;100.00;99785.28;1671161;84;21844;-80
2021/12/05 14:20:00;;;;;;;69.70;33.45;;;;;;;-2.10;100.00;99786.59;1669771;85;20819;-80
2021/12/05 14:22:30;;;;;;;77.25;37.05;;;;;;;-2.09;100.00;99789.63;1668290;85;21125;-81
2021/12/05 14:25:00;;;;;;;76.35;35.30;;;;;;;-2.08;100.00;99796.50;1668084;84;21142;-79
2021/12/05 14:27:31;;;;;;;70.95;33.48;;;;;;;-2.11;100.00;99801.20;1667655;85;21049;-79
2021/12/05 14:29:59;;;;;;;67.67;30.83;;;;;;;-2.13;100.00;99805.48;1669158;84;22344;-82
2021/12/05 14:32:35;;;;;;;65.72;32.50;;;;;;;-2.18;100.00;99815.34;1666847;84;21110;-81
2021/12/05 14:35:06;;;;;;;69.03;33.05;;;;;;;-2.19;100.00;99812.30;1674223;84;21059;-80
2021/12/05 14:37:34;;;;;;;;;;;;;;;-2.21;100.00;99805.86;1666245;85;21078;-81
2021/12/05 14:40:08;;;;;;;64.50;30.92;;;;;;;-2.23;100.00;99815.30;1665856;85;20225;-84
2021/12/05 14:42:38;;;;;;;67.15;30.45;;;;;;;-2.24;100.00;99815.27;1660624;84;21155;-82
2021/12/05 14:45:10;;;;;;;56.85;28.95;;;;;;;-2.25;100.00;99825.16;1662207;84;21650;-80
2021/12/05 14:47:37;;;;;;;58.68;29.60;;;;;;;-2.29;100.00;99822.10;1662367;84;21097;-80
2021/12/05 14:50:14;;;;;;;64.03;28.27;;;;;;;-2.33;100.00;99824.63;1668125;85;21110;-82
2021/12/05 14:52:42;;;;;;;62.58;28.40;;;;;;;-2.37;100.00;99825.87;1668399;85;21102;-81
2021/12/05 14:55:12;;;;;;;54.20;26.27;;;;;;;-2.41;100.00;99828.86;1662776;85;21828;-76
2021/12/05 14:57:51;;;;;;;56.88;29.30;;;;;;;-2.44;100.00;99824.97;1672233;84;21112;-77
2021/12/05 15:00:38;;;;;;;60.52;26.10;;;;;;;-2.48;100.00;99828.36;1656685;84;21126;-76
2021/12/05 15:03:13;;;;;;;54.40;27.42;;;;;;;-2.55;100.00;99835.59;1659406;85;21530;-80
2021/12/05 15:05:45;;;;;;;56.48;26.87;;;;;;;-2.63;100.00;99841.07;1665036;85;21078;-83
2021/12/05 15:08:17;;;;;;;55.80;27.05;;;;;;;-2.63;100.00;99842.36;1668887;85;21149;-78
2021/12/05 15:10:46;;;;;;;59.67;28.87;;;;;;;-2.66;100.00;99850.06;1661613;85;21058;-79
2021/12/05 15:13:12;;;;;;;55.38;26.93;;;;;;;-2.71;100.00;99846.15;1664786;85;21113;-79
2021/12/05 15:15:41;;;;;;;52.50;25.08;;;;;;;-2.80;100.00;99829.28;1662567;85;22176;-79
2021/12/05 15:18:22;;;;;;;57.03;25.20;;;;;;;-2.71;100.00;99860.72;1669293;85;21070;-79
2021/12/05 15:20:48;;;;;;;56.00;27.17;;;;;;;-2.75;100.00;99859.41;1666647;85;21151;-78
2021/12/05 15:23:15;;;;;;;58.33;29.55;;;;;;;-2.78;100.00;99869.69;1666818;85;21049;-81
2021/12/05 15:25:43;;;;;;;73.47;33.13;;;;;;;-2.78;100.00;99863.25;1668182;85;21563;-79
2021/12/05 15:28:11;;;;;;;54.95;27.20;;;;;;;-2.77;100.00;99867.54;1669708;85;21074;-80
2021/12/05 15:30:42;;;;;;;68.12;30.32;;;;;;;-2.78;100.00;99863.25;1669518;85;21086;-79
2021/12/05 15:33:15;;;;;;;50.23;20.23;;;;;;;-2.78;100.00;99869.69;1668608;85;21124;-80
2021/12/05 15:35:43;;;;;;;56.92;26.65;;;;;;;-2.78;100.00;99868.83;1663368;85;21581;-79
2021/12/05 15:38:13;;;;;;;56.15;27.20;;;;;;;-2.78;100.00;99868.83;1662506;85;21113;-81
2021/12/05 15:40:45;;;;;;;62.15;28.45;;;;;;;-2.78;100.00;99880.00;1663909;85;21074;-80
2021/12/05 15:43:15;;;;;;;76.75;34.55;;;;;;;-2.73;100.00;99880.48;1670210;85;21062;-80
2021/12/05 15:45:44;;;;;;;61.25;31.90;;;;;;;-2.72;100.00;99884.78;1669867;85;21353;-81
2021/12/05 15:48:26;;;;;;;66.60;33.42;;;;;;;-2.72;100.00;99882.20;1655219;85;21054;-79
2021/12/05 15:50:54;;;;;;;66.50;30.72;;;;;;;-2.76;100.00;99874.44;1667381;85;21081;-81
2021/12/05 15:53:20;;;;;;;55.20;30.17;;;;;;;-2.76;100.00;99873.55;1662763;85;21070;-81
2021/12/05 15:55:57;;;;;;;64.92;31.35;;;;;;;-2.77;100.00;99863.67;1666807;85;21078;-80
2021/12/05 15:58:31;;;;;;;62.93;31.10;;;;;;;-2.76;100.00;99864.13;1654887;85;21191;-80
2021/12/05 16:01:03;;;;;;;65.42;27.55;;;;;;;-2.76;100.00;99868.40;1668358;85;21071;-80
2021/12/05 16:03:46;;;;;;;70.20;33.63;;;;;;;-2.82;100.00;99860.17;1667595;85;21071;-79
2021/12/05 16:06:15;;;;;;;67.75;32.60;;;;;;;-2.83;100.00;99858.86;1661431;85;21097;-80
2021/12/05 16:08:46;;;;;;;63.10;31.67;;;;;;;-2.84;100.00;99859.29;1665187;85;21074;-82
2021/12/05 16:11:19;;;;;;;69.47;34.43;;;;;;;-2.85;100.00;99858.86;1666281;85;21113;-80
2021/12/05 16:13:48;;;;;;;84.70;40.65;;;;;;;-2.84;100.00;99864.87;1666659;86;21040;-80
2021/12/05 16:16:27;;;;;;;163.65;71.10;;;;;;;-2.84;100.00;99859.29;1666845;86;21648;-81
2021/12/05 16:18:58;;;;;;;266.42;83.72;;;;;;;-2.81;100.00;99870.06;1666827;86;21577;-82
2021/12/05 16:21:28;;;;;;;640.83;207.03;;;;;;;-2.81;100.00;99867.48;1661808;86;21118;-81
2021/12/05 16:23:59;;;;;;;967.68;427.35;;;;;;;-2.84;100.00;99854.13;1663362;85;21158;-81
2021/12/05 16:26:28;;;;;;;145.00;62.08;;;;;;;-2.82;100.00;99855.45;1657941;86;21038;-80
2021/12/05 16:29:00;;;;;;;102.35;46.30;;;;;;;-2.82;100.00;99851.16;1660788;86;21542;-80
2021/12/05 16:31:43;;;;;;;94.20;40.25;;;;;;;-2.83;100.00;99853.31;1660811;86;21122;-81
2021/12/05 16:34:19;;;;;;;101.58;43.40;;;;;;;-2.84;100.00;99843.83;1669624;85;21036;-80
2021/12/05 16:37:03;;;;;;;89.55;41.48;;;;;;;-2.84;100.00;99846.41;1663625;86;21258;-81
2021/12/05 16:39:39;;;;;;;85.17;39.25;;;;;;;-2.85;100.00;99842.11;1651654;85;21549;-81
2021/12/05 16:42:16;;;;;;;81.78;38.08;;;;;;;-2.87;100.00;99849.38;1643362;87;21561;-81
2021/12/05 16:44:48;;;;;;;91.10;39.58;;;;;;;-2.88;100.00;99852.36;1647501;86;21114;-81
2021/12/05 16:47:19;;;;;;;91.67;39.23;;;;;;;-2.90;100.00;99850.19;1653503;86;21495;-81
2021/12/05 16:49:48;;;;;;;101.02;43.05;;;;;;;-2.90;100.00;99846.75;1669795;86;21840;-81
2021/12/05 16:52:20;;;;;;;99.72;42.48;;;;;;;-2.89;100.00;99844.20;1662635;85;21102;-81